sensor_id;sensor_type;location;lat;lon;timestamp;temperature;humidity
78767;SHT31;68092;51.982;5.680;2023-05-27T00:02:20;14.8;49.4
78767;SHT31;68092;51.982;5.680;2023-05-27T00:04:50;14.8;49.3
78767;SHT31;68092;51.982;5.680;2023-05-27T00:07:19;14.8;49.7
78767;SHT31;68092;51.982;5.680;2023-05-27T00:09:51;14.7;49.9
78767;SHT31;68092;51.982;5.680;2023-05-27T00:12:21;14.7;49.6
78767;SHT31;68092;51.982;5.680;2023-05-27T00:14:51;14.7;50.0
78767;SHT31;68092;51.982;5.680;2023-05-27T00:17:21;14.6;50.1
78767;SHT31;68092;51.982;5.680;2023-05-27T00:19:52;14.6;50.3
78767;SHT31;68092;51.982;5.680;2023-05-27T00:22:22;14.6;50.2
78767;SHT31;68092;51.982;5.680;2023-05-27T00:24:53;14.5;50.0
78767;SHT31;68092;51.982;5.680;2023-05-27T00:27:23;14.5;50.6
78767;SHT31;68092;51.982;5.680;2023-05-27T00:29:53;14.4;50.6
78767;SHT31;68092;51.982;5.680;2023-05-27T00:32:22;14.4;51.0
78767;SHT31;68092;51.982;5.680;2023-05-27T00:34:52;14.4;50.7
78767;SHT31;68092;51.982;5.680;2023-05-27T00:37:21;14.3;51.0
78767;SHT31;68092;51.982;5.680;2023-05-27T00:39:51;14.3;51.2
78767;SHT31;68092;51.982;5.680;2023-05-27T00:42:21;14.3;51.2
78767;SHT31;68092;51.982;5.680;2023-05-27T00:44:51;14.3;51.7
78767;SHT31;68092;51.982;5.680;2023-05-27T00:47:29;14.2;51.5
78767;SHT31;68092;51.982;5.680;2023-05-27T00:50:00;14.2;51.7
78767;SHT31;68092;51.982;5.680;2023-05-27T00:52:31;14.2;51.5
78767;SHT31;68092;51.982;5.680;2023-05-27T00:55:02;14.1;51.8
78767;SHT31;68092;51.982;5.680;2023-05-27T00:57:33;14.1;52.0
78767;SHT31;68092;51.982;5.680;2023-05-27T01:00:06;14.1;51.6
78767;SHT31;68092;51.982;5.680;2023-05-27T01:02:37;14.1;51.8
78767;SHT31;68092;51.982;5.680;2023-05-27T01:05:15;14.1;52.0
78767;SHT31;68092;51.982;5.680;2023-05-27T01:07:53;14.0;52.1
78767;SHT31;68092;51.982;5.680;2023-05-27T01:10:31;14.0;52.4
78767;SHT31;68092;51.982;5.680;2023-05-27T01:13:11;14.0;52.4
78767;SHT31;68092;51.982;5.680;2023-05-27T01:15:46;14.0;52.3
78767;SHT31;68092;51.982;5.680;2023-05-27T01:18:21;14.0;52.1
78767;SHT31;68092;51.982;5.680;2023-05-27T01:20:52;13.9;52.5
78767;SHT31;68092;51.982;5.680;2023-05-27T01:23:26;13.9;52.2
78767;SHT31;68092;51.982;5.680;2023-05-27T01:25:58;13.9;52.4
78767;SHT31;68092;51.982;5.680;2023-05-27T01:28:31;13.9;52.6
78767;SHT31;68092;51.982;5.680;2023-05-27T01:31:08;13.9;52.8
78767;SHT31;68092;51.982;5.680;2023-05-27T01:33:44;13.8;52.8
78767;SHT31;68092;51.982;5.680;2023-05-27T01:36:21;13.8;52.6
78767;SHT31;68092;51.982;5.680;2023-05-27T01:38:53;13.8;53.0
78767;SHT31;68092;51.982;5.680;2023-05-27T01:41:25;13.8;52.5
78767;SHT31;68092;51.982;5.680;2023-05-27T01:43:57;13.8;53.2
78767;SHT31;68092;51.982;5.680;2023-05-27T01:46:27;13.8;53.0
78767;SHT31;68092;51.982;5.680;2023-05-27T01:48:58;13.8;52.8
78767;SHT31;68092;51.982;5.680;2023-05-27T01:51:28;13.8;53.3
78767;SHT31;68092;51.982;5.680;2023-05-27T01:53:57;13.7;53.1
78767;SHT31;68092;51.982;5.680;2023-05-27T01:56:27;13.7;53.4
78767;SHT31;68092;51.982;5.680;2023-05-27T01:58:57;13.7;53.2
78767;SHT31;68092;51.982;5.680;2023-05-27T02:01:26;13.7;53.4
78767;SHT31;68092;51.982;5.680;2023-05-27T02:03:56;13.6;53.5
78767;SHT31;68092;51.982;5.680;2023-05-27T02:06:26;13.6;53.3
78767;SHT31;68092;51.982;5.680;2023-05-27T02:08:56;13.6;53.4
78767;SHT31;68092;51.982;5.680;2023-05-27T02:11:27;13.6;53.7
78767;SHT31;68092;51.982;5.680;2023-05-27T02:13:56;13.6;53.7
78767;SHT31;68092;51.982;5.680;2023-05-27T02:16:26;13.5;53.7
78767;SHT31;68092;51.982;5.680;2023-05-27T02:18:57;13.5;53.4
78767;SHT31;68092;51.982;5.680;2023-05-27T02:21:28;13.5;53.4
78767;SHT31;68092;51.982;5.680;2023-05-27T02:23:58;13.5;53.4
78767;SHT31;68092;51.982;5.680;2023-05-27T02:26:28;13.5;53.5
78767;SHT31;68092;51.982;5.680;2023-05-27T02:28:58;13.5;53.9
78767;SHT31;68092;51.982;5.680;2023-05-27T02:31:29;13.4;53.7
78767;SHT31;68092;51.982;5.680;2023-05-27T02:33:59;13.4;53.8
78767;SHT31;68092;51.982;5.680;2023-05-27T02:36:28;13.4;54.0
78767;SHT31;68092;51.982;5.680;2023-05-27T02:38:58;13.4;54.0
78767;SHT31;68092;51.982;5.680;2023-05-27T02:41:27;13.3;54.0
78767;SHT31;68092;51.982;5.680;2023-05-27T02:43:57;13.3;54.0
78767;SHT31;68092;51.982;5.680;2023-05-27T02:46:26;13.3;53.9
78767;SHT31;68092;51.982;5.680;2023-05-27T02:48:56;13.3;54.3
78767;SHT31;68092;51.982;5.680;2023-05-27T02:51:30;13.2;53.9
78767;SHT31;68092;51.982;5.680;2023-05-27T02:54:00;13.2;54.2
78767;SHT31;68092;51.982;5.680;2023-05-27T02:56:30;13.2;54.1
78767;SHT31;68092;51.982;5.680;2023-05-27T02:58:59;13.1;54.3
78767;SHT31;68092;51.982;5.680;2023-05-27T03:01:30;13.1;54.4
78767;SHT31;68092;51.982;5.680;2023-05-27T03:03:59;13.1;54.7
78767;SHT31;68092;51.982;5.680;2023-05-27T03:06:29;13.1;54.4
78767;SHT31;68092;51.982;5.680;2023-05-27T03:09:00;13.1;54.7
78767;SHT31;68092;51.982;5.680;2023-05-27T03:11:30;13.0;54.7
78767;SHT31;68092;51.982;5.680;2023-05-27T03:14:00;13.0;54.4
78767;SHT31;68092;51.982;5.680;2023-05-27T03:16:31;13.0;54.8
78767;SHT31;68092;51.982;5.680;2023-05-27T03:19:01;13.0;54.9
78767;SHT31;68092;51.982;5.680;2023-05-27T03:21:31;12.9;55.1
78767;SHT31;68092;51.982;5.680;2023-05-27T03:24:01;12.9;55.2
78767;SHT31;68092;51.982;5.680;2023-05-27T03:26:31;12.9;55.2
78767;SHT31;68092;51.982;5.680;2023-05-27T03:29:01;12.9;55.0
78767;SHT31;68092;51.982;5.680;2023-05-27T03:31:30;12.9;55.2
78767;SHT31;68092;51.982;5.680;2023-05-27T03:34:00;12.8;55.4
78767;SHT31;68092;51.982;5.680;2023-05-27T03:36:30;12.8;55.0
78767;SHT31;68092;51.982;5.680;2023-05-27T03:39:04;12.8;55.4
78767;SHT31;68092;51.982;5.680;2023-05-27T03:41:34;12.8;55.4
78767;SHT31;68092;51.982;5.680;2023-05-27T03:44:04;12.8;55.4
78767;SHT31;68092;51.982;5.680;2023-05-27T03:46:36;12.7;55.6
78767;SHT31;68092;51.982;5.680;2023-05-27T03:49:07;12.7;55.6
78767;SHT31;68092;51.982;5.680;2023-05-27T03:51:37;12.7;55.8
78767;SHT31;68092;51.982;5.680;2023-05-27T03:54:12;12.7;55.7
78767;SHT31;68092;51.982;5.680;2023-05-27T03:56:44;12.6;55.6
78767;SHT31;68092;51.982;5.680;2023-05-27T03:59:13;12.6;56.0
78767;SHT31;68092;51.982;5.680;2023-05-27T04:01:48;12.6;55.8
78767;SHT31;68092;51.982;5.680;2023-05-27T04:04:21;12.6;55.9
78767;SHT31;68092;51.982;5.680;2023-05-27T04:06:50;12.6;55.9
78767;SHT31;68092;51.982;5.680;2023-05-27T04:09:21;12.6;56.0
78767;SHT31;68092;51.982;5.680;2023-05-27T04:11:50;12.5;56.2
78767;SHT31;68092;51.982;5.680;2023-05-27T04:14:20;12.5;55.8
78767;SHT31;68092;51.982;5.680;2023-05-27T04:16:50;12.5;56.6
78767;SHT31;68092;51.982;5.680;2023-05-27T04:19:19;12.5;56.3
78767;SHT31;68092;51.982;5.680;2023-05-27T04:21:50;12.5;56.6
78767;SHT31;68092;51.982;5.680;2023-05-27T04:24:19;12.5;56.8
78767;SHT31;68092;51.982;5.680;2023-05-27T04:26:49;12.5;57.2
78767;SHT31;68092;51.982;5.680;2023-05-27T04:29:24;12.5;56.6
78767;SHT31;68092;51.982;5.680;2023-05-27T04:31:54;12.5;57.2
78767;SHT31;68092;51.982;5.680;2023-05-27T04:34:25;12.5;57.0
78767;SHT31;68092;51.982;5.680;2023-05-27T04:36:58;12.5;57.4
78767;SHT31;68092;51.982;5.680;2023-05-27T04:39:28;12.5;57.1
78767;SHT31;68092;51.982;5.680;2023-05-27T04:41:58;12.5;57.6
78767;SHT31;68092;51.982;5.680;2023-05-27T04:44:29;12.6;57.5
78767;SHT31;68092;51.982;5.680;2023-05-27T04:46:59;12.6;57.6
78767;SHT31;68092;51.982;5.680;2023-05-27T04:49:29;12.7;57.7
78767;SHT31;68092;51.982;5.680;2023-05-27T04:51:59;12.8;57.0
78767;SHT31;68092;51.982;5.680;2023-05-27T04:54:29;12.9;56.8
78767;SHT31;68092;51.982;5.680;2023-05-27T04:56:59;13.0;56.8
78767;SHT31;68092;51.982;5.680;2023-05-27T04:59:29;13.0;57.0
78767;SHT31;68092;51.982;5.680;2023-05-27T05:02:04;13.0;56.8
78767;SHT31;68092;51.982;5.680;2023-05-27T05:04:48;13.0;56.9
78767;SHT31;68092;51.982;5.680;2023-05-27T05:07:18;13.0;56.7
78767;SHT31;68092;51.982;5.680;2023-05-27T05:09:52;13.1;56.9
78767;SHT31;68092;51.982;5.680;2023-05-27T05:12:24;13.1;56.8
78767;SHT31;68092;51.982;5.680;2023-05-27T05:14:55;13.1;57.1
78767;SHT31;68092;51.982;5.680;2023-05-27T05:17:25;13.1;57.6
78767;SHT31;68092;51.982;5.680;2023-05-27T05:19:55;13.1;57.7
78767;SHT31;68092;51.982;5.680;2023-05-27T05:22:25;13.1;57.7
78767;SHT31;68092;51.982;5.680;2023-05-27T05:24:56;13.1;57.3
78767;SHT31;68092;51.982;5.680;2023-05-27T05:27:26;13.1;58.0
78767;SHT31;68092;51.982;5.680;2023-05-27T05:29:58;13.2;58.2
78767;SHT31;68092;51.982;5.680;2023-05-27T05:32:27;13.2;57.7
78767;SHT31;68092;51.982;5.680;2023-05-27T05:34:57;13.2;57.6
78767;SHT31;68092;51.982;5.680;2023-05-27T05:37:27;13.3;57.3
78767;SHT31;68092;51.982;5.680;2023-05-27T05:39:59;13.3;58.7
78767;SHT31;68092;51.982;5.680;2023-05-27T05:42:28;13.3;58.0
78767;SHT31;68092;51.982;5.680;2023-05-27T05:44:58;13.4;58.4
78767;SHT31;68092;51.982;5.680;2023-05-27T05:47:27;13.4;58.5
78767;SHT31;68092;51.982;5.680;2023-05-27T05:49:57;13.5;58.4
78767;SHT31;68092;51.982;5.680;2023-05-27T05:52:27;13.5;58.7
78767;SHT31;68092;51.982;5.680;2023-05-27T05:54:58;13.6;58.8
78767;SHT31;68092;51.982;5.680;2023-05-27T05:57:27;13.6;58.7
78767;SHT31;68092;51.982;5.680;2023-05-27T05:59:59;13.7;58.5
78767;SHT31;68092;51.982;5.680;2023-05-27T06:02:28;13.7;58.8
78767;SHT31;68092;51.982;5.680;2023-05-27T06:04:58;13.8;59.9
78767;SHT31;68092;51.982;5.680;2023-05-27T06:07:27;13.9;59.1
78767;SHT31;68092;51.982;5.680;2023-05-27T06:09:57;14.0;58.8
78767;SHT31;68092;51.982;5.680;2023-05-27T06:12:27;14.1;59.5
78767;SHT31;68092;51.982;5.680;2023-05-27T06:14:57;14.2;59.0
78767;SHT31;68092;51.982;5.680;2023-05-27T06:17:26;14.3;59.1
78767;SHT31;68092;51.982;5.680;2023-05-27T06:20:00;14.4;58.8
78767;SHT31;68092;51.982;5.680;2023-05-27T06:22:30;14.5;58.2
78767;SHT31;68092;51.982;5.680;2023-05-27T06:24:59;14.7;58.1
78767;SHT31;68092;51.982;5.680;2023-05-27T06:27:29;14.8;57.5
78767;SHT31;68092;51.982;5.680;2023-05-27T06:29:59;14.9;57.6
78767;SHT31;68092;51.982;5.680;2023-05-27T06:32:30;15.0;57.2
78767;SHT31;68092;51.982;5.680;2023-05-27T06:35:02;15.1;57.2
78767;SHT31;68092;51.982;5.680;2023-05-27T06:37:32;15.2;57.3
78767;SHT31;68092;51.982;5.680;2023-05-27T06:40:02;15.3;56.7
78767;SHT31;68092;51.982;5.680;2023-05-27T06:42:32;15.4;56.3
78767;SHT31;68092;51.982;5.680;2023-05-27T06:45:02;15.5;55.9
78767;SHT31;68092;51.982;5.680;2023-05-27T06:47:33;15.5;55.8
78767;SHT31;68092;51.982;5.680;2023-05-27T06:50:03;15.6;56.2
78767;SHT31;68092;51.982;5.680;2023-05-27T06:52:33;15.6;56.0
78767;SHT31;68092;51.982;5.680;2023-05-27T06:55:03;15.7;56.2
78767;SHT31;68092;51.982;5.680;2023-05-27T06:57:33;15.7;55.9
78767;SHT31;68092;51.982;5.680;2023-05-27T07:00:03;15.8;54.6
78767;SHT31;68092;51.982;5.680;2023-05-27T07:02:34;15.8;55.4
78767;SHT31;68092;51.982;5.680;2023-05-27T07:05:05;15.9;55.2
78767;SHT31;68092;51.982;5.680;2023-05-27T07:07:35;16.0;54.8
78767;SHT31;68092;51.982;5.680;2023-05-27T07:10:08;16.0;54.8
78767;SHT31;68092;51.982;5.680;2023-05-27T07:12:38;16.1;54.5
78767;SHT31;68092;51.982;5.680;2023-05-27T07:15:10;16.1;54.4
78767;SHT31;68092;51.982;5.680;2023-05-27T07:17:42;16.2;54.3
78767;SHT31;68092;51.982;5.680;2023-05-27T07:20:13;16.3;54.9
78767;SHT31;68092;51.982;5.680;2023-05-27T07:22:43;16.3;54.4
78767;SHT31;68092;51.982;5.680;2023-05-27T07:25:12;16.4;54.5
78767;SHT31;68092;51.982;5.680;2023-05-27T07:27:42;16.5;54.2
78767;SHT31;68092;51.982;5.680;2023-05-27T07:30:12;16.6;54.2
78767;SHT31;68092;51.982;5.680;2023-05-27T07:32:42;16.7;54.0
78767;SHT31;68092;51.982;5.680;2023-05-27T07:35:12;16.7;53.7
78767;SHT31;68092;51.982;5.680;2023-05-27T07:37:42;16.8;54.0
78767;SHT31;68092;51.982;5.680;2023-05-27T07:40:12;16.9;53.6
78767;SHT31;68092;51.982;5.680;2023-05-27T07:42:42;17.0;53.7
78767;SHT31;68092;51.982;5.680;2023-05-27T07:45:12;17.1;53.2
78767;SHT31;68092;51.982;5.680;2023-05-27T07:47:41;17.1;52.2
78767;SHT31;68092;51.982;5.680;2023-05-27T07:50:12;17.2;53.3
78767;SHT31;68092;51.982;5.680;2023-05-27T07:52:44;17.3;52.8
78767;SHT31;68092;51.982;5.680;2023-05-27T07:55:16;17.4;52.4
78767;SHT31;68092;51.982;5.680;2023-05-27T07:57:48;17.5;52.5
78767;SHT31;68092;51.982;5.680;2023-05-27T08:00:20;17.6;52.7
78767;SHT31;68092;51.982;5.680;2023-05-27T08:02:50;17.7;52.3
78767;SHT31;68092;51.982;5.680;2023-05-27T08:05:19;17.8;52.5
78767;SHT31;68092;51.982;5.680;2023-05-27T08:07:51;18.0;52.4
78767;SHT31;68092;51.982;5.680;2023-05-27T08:10:21;18.1;51.3
78767;SHT31;68092;51.982;5.680;2023-05-27T08:12:50;18.2;51.0
78767;SHT31;68092;51.982;5.680;2023-05-27T08:15:22;18.3;51.1
78767;SHT31;68092;51.982;5.680;2023-05-27T08:17:52;18.4;50.2
78767;SHT31;68092;51.982;5.680;2023-05-27T08:20:23;18.5;50.5
78767;SHT31;68092;51.982;5.680;2023-05-27T08:22:56;18.6;50.8
78767;SHT31;68092;51.982;5.680;2023-05-27T08:25:26;18.7;50.2
78767;SHT31;68092;51.982;5.680;2023-05-27T08:27:56;18.8;50.0
78767;SHT31;68092;51.982;5.680;2023-05-27T08:30:29;18.9;49.5
78767;SHT31;68092;51.982;5.680;2023-05-27T08:33:00;19.1;50.4
78767;SHT31;68092;51.982;5.680;2023-05-27T08:35:31;19.2;50.4
78767;SHT31;68092;51.982;5.680;2023-05-27T08:38:01;19.3;50.3
78767;SHT31;68092;51.982;5.680;2023-05-27T08:40:31;19.4;49.6
78767;SHT31;68092;51.982;5.680;2023-05-27T08:43:02;19.5;48.3
78767;SHT31;68092;51.982;5.680;2023-05-27T08:45:32;19.6;48.9
78767;SHT31;68092;51.982;5.680;2023-05-27T08:48:08;19.8;48.5
78767;SHT31;68092;51.982;5.680;2023-05-27T08:50:39;19.9;47.5
78767;SHT31;68092;51.982;5.680;2023-05-27T08:53:08;20.0;47.1
78767;SHT31;68092;51.982;5.680;2023-05-27T08:55:40;20.1;47.2
78767;SHT31;68092;51.982;5.680;2023-05-27T08:58:10;20.2;47.5
78767;SHT31;68092;51.982;5.680;2023-05-27T09:00:42;20.3;47.5
78767;SHT31;68092;51.982;5.680;2023-05-27T09:03:13;20.4;47.7
78767;SHT31;68092;51.982;5.680;2023-05-27T09:05:44;20.5;47.8
78767;SHT31;68092;51.982;5.680;2023-05-27T09:08:14;20.7;46.5
78767;SHT31;68092;51.982;5.680;2023-05-27T09:10:44;20.8;45.3
78767;SHT31;68092;51.982;5.680;2023-05-27T09:13:13;20.9;45.9
78767;SHT31;68092;51.982;5.680;2023-05-27T09:15:43;21.0;45.1
78767;SHT31;68092;51.982;5.680;2023-05-27T09:18:15;21.1;45.2
78767;SHT31;68092;51.982;5.680;2023-05-27T09:20:53;21.3;45.2
78767;SHT31;68092;51.982;5.680;2023-05-27T09:23:25;21.4;45.4
78767;SHT31;68092;51.982;5.680;2023-05-27T09:25:55;21.6;44.3
78767;SHT31;68092;51.982;5.680;2023-05-27T09:28:26;21.7;44.3
78767;SHT31;68092;51.982;5.680;2023-05-27T09:31:02;21.9;43.6
78767;SHT31;68092;51.982;5.680;2023-05-27T09:33:35;22.0;44.5
78767;SHT31;68092;51.982;5.680;2023-05-27T09:36:08;22.2;43.7
78767;SHT31;68092;51.982;5.680;2023-05-27T09:38:38;22.3;44.0
78767;SHT31;68092;51.982;5.680;2023-05-27T09:41:09;22.5;42.8
78767;SHT31;68092;51.982;5.680;2023-05-27T09:43:39;22.6;38.9
78767;SHT31;68092;51.982;5.680;2023-05-27T09:46:11;22.8;41.4
78767;SHT31;68092;51.982;5.680;2023-05-27T09:48:42;22.9;41.8
78767;SHT31;68092;51.982;5.680;2023-05-27T09:51:13;23.1;41.5
78767;SHT31;68092;51.982;5.680;2023-05-27T09:53:46;23.3;41.9
78767;SHT31;68092;51.982;5.680;2023-05-27T09:56:18;23.4;42.0
78767;SHT31;68092;51.982;5.680;2023-05-27T09:58:49;23.6;42.3
78767;SHT31;68092;51.982;5.680;2023-05-27T10:01:20;23.8;39.4
78767;SHT31;68092;51.982;5.680;2023-05-27T10:03:59;23.9;41.2
78767;SHT31;68092;51.982;5.680;2023-05-27T10:06:33;24.1;40.3
78767;SHT31;68092;51.982;5.680;2023-05-27T10:09:04;24.3;40.9
78767;SHT31;68092;51.982;5.680;2023-05-27T10:11:37;24.4;40.1
78767;SHT31;68092;51.982;5.680;2023-05-27T10:14:09;24.6;39.1
78767;SHT31;68092;51.982;5.680;2023-05-27T10:16:52;24.8;40.3
78767;SHT31;68092;51.982;5.680;2023-05-27T10:19:25;25.0;38.1
78767;SHT31;68092;51.982;5.680;2023-05-27T10:22:06;25.2;39.2
78767;SHT31;68092;51.982;5.680;2023-05-27T10:24:34;25.5;38.7
78767;SHT31;68092;51.982;5.680;2023-05-27T10:27:04;25.9;37.1
78767;SHT31;68092;51.982;5.680;2023-05-27T10:29:40;26.3;34.5
78767;SHT31;68092;51.982;5.680;2023-05-27T10:32:09;26.6;36.5
78767;SHT31;68092;51.982;5.680;2023-05-27T10:34:44;26.7;36.6
78767;SHT31;68092;51.982;5.680;2023-05-27T10:37:20;26.8;36.2
78767;SHT31;68092;51.982;5.680;2023-05-27T10:39:57;27.0;35.7
78767;SHT31;68092;51.982;5.680;2023-05-27T10:42:27;27.2;35.7
78767;SHT31;68092;51.982;5.680;2023-05-27T10:45:06;27.3;36.5
78767;SHT31;68092;51.982;5.680;2023-05-27T10:47:45;27.5;33.9
78767;SHT31;68092;51.982;5.680;2023-05-27T10:50:15;27.8;35.1
78767;SHT31;68092;51.982;5.680;2023-05-27T10:52:47;28.0;33.3
78767;SHT31;68092;51.982;5.680;2023-05-27T10:55:20;28.1;33.5
78767;SHT31;68092;51.982;5.680;2023-05-27T10:57:51;28.3;33.2
78767;SHT31;68092;51.982;5.680;2023-05-27T11:00:28;28.5;32.5
78767;SHT31;68092;51.982;5.680;2023-05-27T11:02:59;28.7;31.2
78767;SHT31;68092;51.982;5.680;2023-05-27T11:05:29;28.8;33.0
78767;SHT31;68092;51.982;5.680;2023-05-27T11:08:01;28.9;29.6
78767;SHT31;68092;51.982;5.680;2023-05-27T11:10:36;29.0;29.9
78767;SHT31;68092;51.982;5.680;2023-05-27T11:13:05;29.1;33.3
78767;SHT31;68092;51.982;5.680;2023-05-27T11:15:39;29.2;30.6
78767;SHT31;68092;51.982;5.680;2023-05-27T11:18:10;29.3;29.1
78767;SHT31;68092;51.982;5.680;2023-05-27T11:20:39;29.4;32.3
78767;SHT31;68092;51.982;5.680;2023-05-27T11:23:09;29.5;29.6
78767;SHT31;68092;51.982;5.680;2023-05-27T11:25:45;29.6;29.2
78767;SHT31;68092;51.982;5.680;2023-05-27T11:28:16;29.7;27.3
78767;SHT31;68092;51.982;5.680;2023-05-27T11:30:47;29.8;28.5
78767;SHT31;68092;51.982;5.680;2023-05-27T11:33:16;29.9;29.6
78767;SHT31;68092;51.982;5.680;2023-05-27T11:35:46;29.9;29.2
78767;SHT31;68092;51.982;5.680;2023-05-27T11:38:18;30.0;29.8
78767;SHT31;68092;51.982;5.680;2023-05-27T11:40:47;30.0;30.8
78767;SHT31;68092;51.982;5.680;2023-05-27T11:43:18;30.1;29.8
78767;SHT31;68092;51.982;5.680;2023-05-27T11:45:48;30.2;29.0
78767;SHT31;68092;51.982;5.680;2023-05-27T11:48:17;30.4;30.6
78767;SHT31;68092;51.982;5.680;2023-05-27T11:50:51;30.5;28.8
78767;SHT31;68092;51.982;5.680;2023-05-27T11:53:22;30.7;30.1
78767;SHT31;68092;51.982;5.680;2023-05-27T11:55:51;30.9;30.3
78767;SHT31;68092;51.982;5.680;2023-05-27T11:58:21;31.1;31.1
78767;SHT31;68092;51.982;5.680;2023-05-27T12:00:55;31.2;30.2
78767;SHT31;68092;51.982;5.680;2023-05-27T12:03:25;31.4;26.9
78767;SHT31;68092;51.982;5.680;2023-05-27T12:05:54;31.5;28.3
78767;SHT31;68092;51.982;5.680;2023-05-27T12:08:24;31.5;27.1
78767;SHT31;68092;51.982;5.680;2023-05-27T12:10:54;31.6;26.4
78767;SHT31;68092;51.982;5.680;2023-05-27T12:13:24;31.7;28.3
78767;SHT31;68092;51.982;5.680;2023-05-27T12:15:55;31.8;28.8
78767;SHT31;68092;51.982;5.680;2023-05-27T12:18:26;31.9;29.4
78767;SHT31;68092;51.982;5.680;2023-05-27T12:20:57;32.1;30.3
78767;SHT31;68092;51.982;5.680;2023-05-27T12:23:28;32.3;25.8
78767;SHT31;68092;51.982;5.680;2023-05-27T12:25:58;32.4;29.8
78767;SHT31;68092;51.982;5.680;2023-05-27T12:28:28;32.6;29.3
78767;SHT31;68092;51.982;5.680;2023-05-27T12:30:58;32.7;29.1
78767;SHT31;68092;51.982;5.680;2023-05-27T12:33:29;32.9;28.6
78767;SHT31;68092;51.982;5.680;2023-05-27T12:36:00;33.1;27.9
78767;SHT31;68092;51.982;5.680;2023-05-27T12:38:33;33.3;28.1
78767;SHT31;68092;51.982;5.680;2023-05-27T12:41:03;33.4;24.1
78767;SHT31;68092;51.982;5.680;2023-05-27T12:43:34;33.5;25.2
78767;SHT31;68092;51.982;5.680;2023-05-27T12:46:04;33.6;27.6
78767;SHT31;68092;51.982;5.680;2023-05-27T12:48:34;33.6;27.4
78767;SHT31;68092;51.982;5.680;2023-05-27T12:51:07;33.7;27.5
78767;SHT31;68092;51.982;5.680;2023-05-27T12:53:38;33.8;27.8
78767;SHT31;68092;51.982;5.680;2023-05-27T12:56:12;33.9;27.5
78767;SHT31;68092;51.982;5.680;2023-05-27T12:58:41;34.1;27.3
78767;SHT31;68092;51.982;5.680;2023-05-27T13:01:11;34.2;26.4
78767;SHT31;68092;51.982;5.680;2023-05-27T13:03:41;34.4;25.7
78767;SHT31;68092;51.982;5.680;2023-05-27T13:06:11;34.5;25.1
78767;SHT31;68092;51.982;5.680;2023-05-27T13:08:41;34.6;22.2
78767;SHT31;68092;51.982;5.680;2023-05-27T13:11:11;34.6;22.1
78767;SHT31;68092;51.982;5.680;2023-05-27T13:13:41;34.7;25.0
78767;SHT31;68092;51.982;5.680;2023-05-27T13:16:11;34.7;25.6
78767;SHT31;68092;51.982;5.680;2023-05-27T13:18:40;34.7;25.0
78767;SHT31;68092;51.982;5.680;2023-05-27T13:21:10;34.8;25.6
78767;SHT31;68092;51.982;5.680;2023-05-27T13:23:42;34.9;24.5
78767;SHT31;68092;51.982;5.680;2023-05-27T13:26:13;35.0;24.7
78767;SHT31;68092;51.982;5.680;2023-05-27T13:28:43;35.0;23.0
78767;SHT31;68092;51.982;5.680;2023-05-27T13:31:13;35.1;24.1
78767;SHT31;68092;51.982;5.680;2023-05-27T13:33:42;35.1;25.1
78767;SHT31;68092;51.982;5.680;2023-05-27T13:36:13;35.2;25.2
78767;SHT31;68092;51.982;5.680;2023-05-27T13:38:46;35.3;24.6
78767;SHT31;68092;51.982;5.680;2023-05-27T13:41:16;35.4;23.6
78767;SHT31;68092;51.982;5.680;2023-05-27T13:43:45;35.5;24.9
78767;SHT31;68092;51.982;5.680;2023-05-27T13:46:15;35.6;24.1
78767;SHT31;68092;51.982;5.680;2023-05-27T13:48:45;35.7;21.2
78767;SHT31;68092;51.982;5.680;2023-05-27T13:51:14;35.8;24.0
78767;SHT31;68092;51.982;5.680;2023-05-27T13:53:44;35.8;24.7
78767;SHT31;68092;51.982;5.680;2023-05-27T13:56:14;35.9;23.7
78767;SHT31;68092;51.982;5.680;2023-05-27T13:58:46;36.0;23.2
78767;SHT31;68092;51.982;5.680;2023-05-27T14:01:16;36.0;24.2
78767;SHT31;68092;51.982;5.680;2023-05-27T14:03:48;36.1;24.0
78767;SHT31;68092;51.982;5.680;2023-05-27T14:06:17;36.2;24.1
78767;SHT31;68092;51.982;5.680;2023-05-27T14:08:47;36.2;23.2
78767;SHT31;68092;51.982;5.680;2023-05-27T14:11:17;36.3;23.8
78767;SHT31;68092;51.982;5.680;2023-05-27T14:13:49;36.4;21.8
78767;SHT31;68092;51.982;5.680;2023-05-27T14:16:18;36.4;24.3
78767;SHT31;68092;51.982;5.680;2023-05-27T14:18:49;36.5;22.2
78767;SHT31;68092;51.982;5.680;2023-05-27T14:21:18;36.5;20.4
78767;SHT31;68092;51.982;5.680;2023-05-27T14:23:49;36.5;22.9
78767;SHT31;68092;51.982;5.680;2023-05-27T14:26:22;36.5;22.8
78767;SHT31;68092;51.982;5.680;2023-05-27T14:28:54;36.5;22.6
78767;SHT31;68092;51.982;5.680;2023-05-27T14:31:25;36.5;23.7
78767;SHT31;68092;51.982;5.680;2023-05-27T14:33:55;36.6;23.9
78767;SHT31;68092;51.982;5.680;2023-05-27T14:36:25;36.6;21.7
78767;SHT31;68092;51.982;5.680;2023-05-27T14:38:59;36.6;21.4
78767;SHT31;68092;51.982;5.680;2023-05-27T14:41:34;36.6;22.1
78767;SHT31;68092;51.982;5.680;2023-05-27T14:44:04;36.6;22.8
78767;SHT31;68092;51.982;5.680;2023-05-27T14:46:33;36.6;22.6
78767;SHT31;68092;51.982;5.680;2023-05-27T14:49:03;36.6;23.4
78767;SHT31;68092;51.982;5.680;2023-05-27T14:51:33;36.6;23.6
78767;SHT31;68092;51.982;5.680;2023-05-27T14:54:06;36.7;22.8
78767;SHT31;68092;51.982;5.680;2023-05-27T14:56:38;36.7;23.1
78767;SHT31;68092;51.982;5.680;2023-05-27T14:59:08;36.7;22.5
78767;SHT31;68092;51.982;5.680;2023-05-27T15:01:38;36.8;21.4
78767;SHT31;68092;51.982;5.680;2023-05-27T15:04:11;36.7;23.1
78767;SHT31;68092;51.982;5.680;2023-05-27T15:06:42;36.8;23.2
78767;SHT31;68092;51.982;5.680;2023-05-27T15:09:11;36.8;20.4
78767;SHT31;68092;51.982;5.680;2023-05-27T15:11:41;36.7;19.9
78767;SHT31;68092;51.982;5.680;2023-05-27T15:14:12;36.7;23.2
78767;SHT31;68092;51.982;5.680;2023-05-27T15:16:43;36.6;23.2
78767;SHT31;68092;51.982;5.680;2023-05-27T15:19:22;36.6;21.8
78767;SHT31;68092;51.982;5.680;2023-05-27T15:21:53;36.5;23.3
78767;SHT31;68092;51.982;5.680;2023-05-27T15:26:20;36.5;22.7
78767;SHT31;68092;51.982;5.680;2023-05-27T15:28:53;36.5;23.0
78767;SHT31;68092;51.982;5.680;2023-05-27T15:31:23;36.5;23.4
78767;SHT31;68092;51.982;5.680;2023-05-27T15:33:55;36.5;22.5
78767;SHT31;68092;51.982;5.680;2023-05-27T15:36:25;36.5;20.9
78767;SHT31;68092;51.982;5.680;2023-05-27T15:38:57;36.5;23.3
78767;SHT31;68092;51.982;5.680;2023-05-27T15:41:27;36.6;22.9
78767;SHT31;68092;51.982;5.680;2023-05-27T15:43:56;36.6;23.3
78767;SHT31;68092;51.982;5.680;2023-05-27T15:46:26;36.7;22.5
78767;SHT31;68092;51.982;5.680;2023-05-27T15:48:56;36.7;22.5
78767;SHT31;68092;51.982;5.680;2023-05-27T15:51:27;36.7;22.8
78767;SHT31;68092;51.982;5.680;2023-05-27T15:53:57;36.7;22.3
78767;SHT31;68092;51.982;5.680;2023-05-27T15:56:29;36.7;21.7
78767;SHT31;68092;51.982;5.680;2023-05-27T15:58:58;36.6;21.8
78767;SHT31;68092;51.982;5.680;2023-05-27T16:01:28;36.6;21.9
78767;SHT31;68092;51.982;5.680;2023-05-27T16:03:57;36.5;22.6
78767;SHT31;68092;51.982;5.680;2023-05-27T16:06:28;36.5;22.4
78767;SHT31;68092;51.982;5.680;2023-05-27T16:08:58;36.4;21.9
78767;SHT31;68092;51.982;5.680;2023-05-27T16:11:28;36.4;22.2
78767;SHT31;68092;51.982;5.680;2023-05-27T16:13:58;36.3;21.5
78767;SHT31;68092;51.982;5.680;2023-05-27T16:16:28;36.3;22.7
78767;SHT31;68092;51.982;5.680;2023-05-27T16:18:58;36.2;22.4
78767;SHT31;68092;51.982;5.680;2023-05-27T16:21:28;36.2;22.1
78767;SHT31;68092;51.982;5.680;2023-05-27T16:24:01;36.1;22.2
78767;SHT31;68092;51.982;5.680;2023-05-27T16:26:34;36.0;22.7
78767;SHT31;68092;51.982;5.680;2023-05-27T16:29:06;35.9;22.2